Time;durP1;ratioP1;P1;durP2;ratioP2;P2;SDS_P1;SDS_P2;PMS_P1;PMS_P2;Temp;Humidity;BMP_temperature;BMP_pressure;BME280_temperature;BME280_humidity;BME280_pressure;Samples;Min_cycle;Max_cycle;Signal;HPM_P1;HPM_P2
2022/06/01 00:00:50;;;;;;;1.80;1.33;;;24.60;50.60;;;;;;4997514;28;20184;-84
2022/06/01 00:06:37;;;;;;;1.90;1.57;;;24.70;50.60;;;;;;5013360;28;20403;-83
2022/06/01 00:09:04;;;;;;;1.80;1.30;;;24.60;50.60;;;;;;5013761;28;20408;-83
2022/06/01 00:11:31;;;;;;;1.50;1.40;;;24.60;50.60;;;;;;4996761;28;20173;-84
2022/06/01 00:13:57;;;;;;;1.57;1.30;;;24.60;50.60;;;;;;5007959;28;20431;-84
2022/06/01 00:16:23;;;;;;;2.47;1.47;;;24.60;50.60;;;;;;5030560;28;20464;-83
2022/06/01 00:18:51;;;;;;;2.27;1.17;;;24.60;50.60;;;;;;5015454;28;20219;-83
2022/06/01 00:21:32;;;;;;;2.20;1.40;;;24.60;50.50;;;;;;5013571;28;20427;-84
2022/06/01 00:24:05;;;;;;;2.17;1.43;;;24.60;50.50;;;;;;5015597;28;20458;-83
2022/06/01 00:29:57;;;;;;;3.73;1.47;;;24.60;50.50;;;;;;5015371;28;20384;-83
2022/06/01 00:32:24;;;;;;;2.57;1.30;;;24.60;50.50;;;;;;5015413;28;20403;-84
2022/06/01 00:34:52;;;;;;;2.23;1.20;;;24.60;50.50;;;;;;5014098;28;20420;-84
2022/06/01 00:37:19;;;;;;;1.40;1.17;;;24.60;50.50;;;;;;5014666;28;20408;-83
2022/06/01 00:39:45;;;;;;;2.30;1.23;;;24.60;50.50;;;;;;5014476;28;20416;-83
2022/06/01 00:42:14;;;;;;;1.40;1.10;;;24.60;50.60;;;;;;5022356;28;20416;-83
2022/06/01 00:44:41;;;;;;;2.27;1.50;;;24.60;50.50;;;;;;5013980;28;20501;-83
2022/06/01 00:47:08;;;;;;;1.50;1.07;;;24.60;50.50;;;;;;5016251;28;20408;-83
2022/06/01 00:49:41;;;;;;;1.20;1.03;;;24.60;50.50;;;;;;5017464;28;21029;-84
2022/06/01 00:52:10;;;;;;;2.03;1.60;;;24.60;50.50;;;;;;5034379;28;20459;-83
2022/06/01 00:54:36;;;;;;;1.23;1.03;;;24.60;50.50;;;;;;5033155;28;20407;-83
2022/06/01 00:57:08;;;;;;;1.10;1.00;;;24.60;50.50;;;;;;5033467;28;20509;-83
2022/06/01 00:59:39;;;;;;;1.67;1.13;;;24.60;50.50;;;;;;5033090;28;20349;-83
2022/06/01 01:02:08;;;;;;;3.53;1.43;;;24.60;50.50;;;;;;5048402;28;20427;-83
2022/06/01 01:04:38;;;;;;;1.30;1.07;;;24.60;50.60;;;;;;5032620;28;20431;-83
2022/06/01 01:07:12;;;;;;;1.90;1.30;;;24.60;50.60;;;;;;5034275;28;20406;-84
2022/06/01 01:09:39;;;;;;;1.60;1.30;;;24.60;50.60;;;;;;5032628;28;20407;-84
2022/06/01 01:12:13;;;;;;;1.57;1.10;;;24.50;50.50;;;;;;5033814;28;20431;-84
2022/06/01 01:14:48;;;;;;;1.10;0.90;;;24.50;50.50;;;;;;5033440;28;20391;-84
2022/06/01 01:17:14;;;;;;;1.40;1.30;;;24.50;50.50;;;;;;5032992;28;20427;-84
2022/06/01 01:19:49;;;;;;;2.23;1.30;;;24.50;50.50;;;;;;5033561;28;20426;-84
2022/06/01 01:22:27;;;;;;;1.40;1.30;;;24.50;50.50;;;;;;5065939;28;20453;-84
2022/06/01 01:25:28;;;;;;;2.13;1.20;;;24.50;50.50;;;;;;5032165;28;20451;-84
2022/06/01 01:27:59;;;;;;;2.10;1.27;;;24.50;50.50;;;;;;5066082;28;20411;-84
2022/06/01 01:30:39;;;;;;;2.13;1.20;;;24.50;50.60;;;;;;5033246;28;20463;-84
2022/06/01 01:33:15;;;;;;;1.67;1.10;;;24.50;50.60;;;;;;5031984;28;20415;-83
2022/06/01 01:35:46;;;;;;;4.47;1.20;;;24.40;50.60;;;;;;5032815;28;20463;-83
2022/06/01 01:38:32;;;;;;;1.93;1.30;;;24.50;50.60;;;;;;5032102;28;20415;-84
2022/06/01 01:41:09;;;;;;;1.60;1.50;;;24.50;50.70;;;;;;5033414;28;20387;-83
2022/06/01 01:43:40;;;;;;;2.03;1.20;;;24.40;50.60;;;;;;5049580;28;20414;-83
2022/06/01 01:46:06;;;;;;;1.37;1.20;;;24.40;50.60;;;;;;5032255;28;20504;-83
2022/06/01 01:48:35;;;;;;;1.37;1.20;;;24.40;50.60;;;;;;5033552;28;20419;-83
2022/06/01 01:51:02;;;;;;;2.60;1.50;;;24.40;50.60;;;;;;5049595;28;20427;-83
2022/06/01 01:53:29;;;;;;;1.23;1.13;;;24.40;50.60;;;;;;5032251;28;20427;-83
2022/06/01 01:56:14;;;;;;;1.40;1.27;;;24.40;50.60;;;;;;5032982;28;20569;-83
2022/06/01 01:59:23;;;;;;;1.53;1.20;;;24.40;50.60;;;;;;5033520;28;20407;-83
2022/06/01 02:02:04;;;;;;;1.30;1.10;;;24.40;50.60;;;;;;5065363;28;20848;-83
2022/06/01 02:07:45;;;;;;;1.40;1.30;;;24.40;50.60;;;;;;5032221;28;20399;-83
2022/06/01 02:12:57;;;;;;;1.60;1.20;;;24.40;50.70;;;;;;5033443;28;20770;-84
2022/06/01 02:15:30;;;;;;;1.60;1.10;;;24.40;50.70;;;;;;5013659;28;20524;-85
2022/06/01 02:18:01;;;;;;;1.50;1.20;;;24.40;50.70;;;;;;5061894;28;20419;-84
2022/06/01 02:20:46;;;;;;;1.27;1.17;;;24.40;50.70;;;;;;5032890;28;20398;-85
2022/06/01 02:23:14;;;;;;;1.30;1.10;;;24.40;50.70;;;;;;5015880;28;20451;-85
2022/06/01 02:25:45;;;;;;;1.20;1.10;;;24.40;50.70;;;;;;5033495;28;20435;-85
2022/06/01 02:28:11;;;;;;;1.50;1.10;;;24.40;50.70;;;;;;5032695;28;20417;-85
2022/06/01 02:30:40;;;;;;;3.37;2.07;;;24.40;50.70;;;;;;5032100;28;20419;-84
2022/06/01 02:33:10;;;;;;;1.30;1.20;;;24.40;50.70;;;;;;5032693;28;20409;-85
2022/06/01 02:35:39;;;;;;;1.43;1.20;;;24.40;50.70;;;;;;5031544;28;20451;-85
2022/06/01 02:38:14;;;;;;;1.50;1.03;;;24.40;50.70;;;;;;5032938;28;20440;-85
2022/06/01 02:40:39;;;;;;;1.93;1.20;;;24.30;50.60;;;;;;5031909;28;20403;-85
2022/06/01 02:43:05;;;;;;;1.40;1.20;;;24.30;50.60;;;;;;5032134;28;20419;-86
2022/06/01 02:45:32;;;;;;;1.00;0.90;;;24.30;51.20;;;;;;5032630;28;20184;-86
2022/06/01 02:47:59;;;;;;;1.20;1.00;;;24.30;50.60;;;;;;5033792;28;20427;-86
2022/06/01 02:50:31;;;;;;;1.40;1.20;;;24.30;50.60;;;;;;5048516;28;20423;-86
2022/06/01 02:52:57;;;;;;;1.50;1.20;;;24.30;50.60;;;;;;5033850;28;20843;-86
2022/06/01 02:55:24;;;;;;;1.33;1.10;;;24.30;50.60;;;;;;5032805;28;20459;-84
2022/06/01 02:57:51;;;;;;;1.40;1.17;;;24.30;50.60;;;;;;5023529;28;20422;-85
2022/06/01 03:00:29;;;;;;;1.67;1.20;;;24.30;50.60;;;;;;5033098;28;20411;-85
2022/06/01 03:02:58;;;;;;;1.50;1.20;;;24.30;50.60;;;;;;5034428;28;20394;-85
2022/06/01 03:05:30;;;;;;;1.40;1.20;;;24.30;50.60;;;;;;5031523;28;20457;-86
2022/06/01 03:07:57;;;;;;;1.30;1.13;;;24.30;50.60;;;;;;5030699;28;20411;-85
2022/06/01 03:10:23;;;;;;;1.30;1.00;;;24.30;50.70;;;;;;5058899;28;20428;-85
2022/06/01 03:12:51;;;;;;;1.03;0.93;;;24.30;50.60;;;;;;5039602;28;20439;-85
2022/06/01 03:15:19;;;;;;;1.30;1.20;;;24.30;50.60;;;;;;5025199;28;20487;-84
2022/06/01 03:17:45;;;;;;;1.30;1.00;;;24.30;50.70;;;;;;5033532;28;20434;-84
2022/06/01 03:20:17;;;;;;;1.40;0.90;;;24.30;50.70;;;;;;5033405;28;20439;-85
2022/06/01 03:22:45;;;;;;;1.27;1.00;;;24.30;50.70;;;;;;5040826;28;20427;-84
2022/06/01 03:25:16;;;;;;;1.20;1.10;;;24.30;50.70;;;;;;5032102;28;20468;-84
2022/06/01 03:27:42;;;;;;;1.43;1.00;;;24.30;50.70;;;;;;5032834;28;20439;-84
2022/06/01 03:30:11;;;;;;;1.70;1.03;;;24.30;50.70;;;;;;5031541;28;20423;-85
2022/06/01 03:32:37;;;;;;;1.30;1.10;;;24.30;50.70;;;;;;5033394;28;20457;-85
2022/06/01 03:35:05;;;;;;;1.20;1.00;;;24.30;50.70;;;;;;5032184;28;20469;-85
2022/06/01 03:37:31;;;;;;;1.33;1.10;;;24.30;50.70;;;;;;5032518;28;20924;-85
2022/06/01 03:39:58;;;;;;;1.33;1.00;;;24.20;50.60;;;;;;5048430;28;20435;-85
2022/06/01 03:42:23;;;;;;;1.47;1.03;;;24.30;50.70;;;;;;5031240;28;20454;-85
2022/06/01 03:47:33;;;;;;;1.37;1.17;;;24.30;50.70;;;;;;5026991;28;20222;-85
2022/06/01 03:50:00;;;;;;;1.27;0.90;;;24.30;50.70;;;;;;5035203;28;20411;-84
2022/06/01 03:52:26;;;;;;;1.30;1.10;;;24.20;50.70;;;;;;5025288;28;20202;-84
2022/06/01 03:54:52;;;;;;;2.70;0.97;;;24.30;50.80;;;;;;5030118;28;20416;-85
2022/06/01 03:57:18;;;;;;;1.10;1.00;;;24.20;50.70;;;;;;5034354;28;20422;-85
2022/06/01 03:59:44;;;;;;;1.23;1.13;;;24.30;50.70;;;;;;5034773;28;20427;-85
2022/06/01 04:02:10;;;;;;;1.90;1.70;;;24.20;50.70;;;;;;5033718;28;20419;-85
2022/06/01 04:04:36;;;;;;;1.20;1.10;;;24.30;50.70;;;;;;5035625;28;20177;-85
2022/06/01 04:07:02;;;;;;;1.30;1.00;;;24.30;50.70;;;;;;5035470;28;20439;-85
2022/06/01 04:09:29;;;;;;;1.47;1.20;;;24.30;50.80;;;;;;5026852;28;20635;-85
2022/06/01 04:11:55;;;;;;;1.60;1.20;;;24.30;50.80;;;;;;5044769;28;20840;-84
2022/06/01 04:14:21;;;;;;;1.70;1.30;;;24.30;50.80;;;;;;5028338;28;20424;-84
2022/06/01 04:16:48;;;;;;;1.10;1.00;;;24.30;50.80;;;;;;5031206;28;20469;-85
2022/06/01 04:19:14;;;;;;;1.20;1.10;;;24.30;50.80;;;;;;5031090;28;20438;-85
2022/06/01 04:21:43;;;;;;;1.50;1.10;;;24.30;50.80;;;;;;5025935;28;20431;-85
2022/06/01 04:24:12;;;;;;;1.80;1.53;;;24.30;50.80;;;;;;5028936;28;20443;-84
2022/06/01 04:26:38;;;;;;;1.20;1.00;;;24.30;50.80;;;;;;5031682;28;20427;-84
2022/06/01 04:29:05;;;;;;;1.27;1.00;;;24.30;50.70;;;;;;5031524;28;20485;-84
2022/06/01 04:31:32;;;;;;;1.30;1.10;;;24.30;50.70;;;;;;5027116;28;20454;-84
2022/06/01 04:33:58;;;;;;;1.27;1.17;;;24.30;50.70;;;;;;5028707;28;20244;-84
2022/06/01 04:36:23;;;;;;;1.10;1.00;;;24.30;50.70;;;;;;5028346;28;20458;-84
2022/06/01 04:38:49;;;;;;;1.40;1.00;;;24.30;50.70;;;;;;5026877;28;20443;-84
2022/06/01 04:41:15;;;;;;;2.17;1.40;;;24.40;50.80;;;;;;5028952;28;20184;-84
2022/06/01 04:43:41;;;;;;;1.27;1.17;;;24.40;50.70;;;;;;5043017;28;20355;-84
2022/06/01 04:46:10;;;;;;;2.00;1.27;;;24.40;50.70;;;;;;5042036;28;20447;-84
2022/06/01 04:48:36;;;;;;;3.77;1.10;;;24.40;50.70;;;;;;5027094;28;20207;-84
2022/06/01 04:51:02;;;;;;;1.60;1.40;;;24.40;50.70;;;;;;5027664;28;20424;-84
2022/06/01 04:53:28;;;;;;;1.17;0.97;;;24.40;50.70;;;;;;5027438;28;20184;-84
2022/06/01 04:55:54;;;;;;;1.30;1.00;;;24.40;50.70;;;;;;5021971;28;20201;-83
2022/06/01 04:58:20;;;;;;;1.83;1.30;;;24.40;50.70;;;;;;5030527;28;20430;-84
2022/06/01 05:00:47;;;;;;;1.30;1.20;;;24.40;50.70;;;;;;5029384;28;20176;-84
2022/06/01 05:03:13;;;;;;;1.33;1.23;;;24.40;50.70;;;;;;5030946;28;20411;-83
2022/06/01 05:05:43;;;;;;;1.30;1.20;;;24.40;50.70;;;;;;5029235;28;20467;-84
2022/06/01 05:08:15;;;;;;;1.60;1.10;;;24.40;50.70;;;;;;5029184;28;20892;-85
2022/06/01 05:10:42;;;;;;;1.70;1.40;;;24.40;50.70;;;;;;5031286;28;20423;-85
2022/06/01 05:13:08;;;;;;;1.47;1.20;;;24.40;50.70;;;;;;5029808;28;20427;-87
2022/06/01 05:15:36;;;;;;;1.63;1.53;;;24.40;50.70;;;;;;5030186;28;20459;-87
2022/06/01 05:18:02;;;;;;;1.80;1.10;;;24.40;50.70;;;;;;5030360;28;20403;-86
2022/06/01 05:20:27;;;;;;;1.30;1.20;;;24.40;50.70;;;;;;5029542;28;20423;-86
2022/06/01 05:22:53;;;;;;;1.30;1.10;;;24.40;50.70;;;;;;5028863;28;20207;-86
2022/06/01 05:25:21;;;;;;;2.10;1.13;;;24.50;50.80;;;;;;5029156;28;20200;-86
2022/06/01 05:27:47;;;;;;;2.03;1.30;;;24.50;50.80;;;;;;5029636;28;20185;-86
2022/06/01 05:30:13;;;;;;;1.20;1.10;;;24.50;50.80;;;;;;5029593;28;20428;-86
2022/06/01 05:32:39;;;;;;;2.07;1.77;;;24.50;50.80;;;;;;5029379;28;20183;-86
2022/06/01 05:35:15;;;;;;;1.30;1.20;;;24.50;50.70;;;;;;5029650;28;20959;-86
2022/06/01 05:37:41;;;;;;;2.03;1.10;;;24.50;50.70;;;;;;5029990;28;20188;-86
2022/06/01 05:40:07;;;;;;;1.50;1.20;;;24.50;50.70;;;;;;5030932;28;20418;-86
2022/06/01 05:42:33;;;;;;;1.37;1.20;;;24.50;50.70;;;;;;5029761;28;20236;-86
2022/06/01 05:44:59;;;;;;;1.77;1.10;;;24.50;50.70;;;;;;5029471;28;20573;-86
2022/06/01 05:47:25;;;;;;;1.20;1.00;;;24.50;50.70;;;;;;5010030;28;20197;-86
2022/06/01 05:49:51;;;;;;;1.90;1.10;;;24.50;50.60;;;;;;5033579;28;20196;-86
2022/06/01 05:52:18;;;;;;;1.33;1.10;;;24.50;50.70;;;;;;5045188;28;20185;-86
2022/06/01 05:54:45;;;;;;;1.10;1.00;;;24.50;50.70;;;;;;5028983;28;20439;-86
2022/06/01 05:57:11;;;;;;;1.50;1.23;;;24.50;50.60;;;;;;5029881;28;20454;-86
2022/06/01 05:59:39;;;;;;;1.20;1.10;;;24.50;50.60;;;;;;5029808;28;20419;-86
2022/06/01 06:02:08;;;;;;;1.60;1.00;;;24.60;50.70;;;;;;5030015;28;20172;-86
2022/06/01 06:04:34;;;;;;;2.63;1.30;;;24.60;50.70;;;;;;5028921;28;20426;-85
2022/06/01 06:06:59;;;;;;;1.10;0.90;;;24.50;50.60;;;;;;5028504;28;20430;-86
2022/06/01 06:09:26;;;;;;;1.43;0.97;;;24.60;50.70;;;;;;5030193;28;20176;-86
2022/06/01 06:11:52;;;;;;;1.97;1.10;;;24.50;50.70;;;;;;5028248;28;20176;-86
2022/06/01 06:14:19;;;;;;;1.33;1.10;;;24.50;50.70;;;;;;5029250;28;20416;-85
2022/06/01 06:16:47;;;;;;;1.90;1.30;;;24.60;50.80;;;;;;5030387;28;20462;-85
2022/06/01 06:19:16;;;;;;;1.40;1.00;;;24.60;50.80;;;;;;5028347;28;20419;-86
2022/06/01 06:21:42;;;;;;;2.03;1.00;;;24.60;50.80;;;;;;5029644;28;20756;-86
2022/06/01 06:24:14;;;;;;;3.23;1.63;;;24.60;50.80;;;;;;5029517;28;20423;-86
2022/06/01 06:26:42;;;;;;;1.50;1.30;;;24.60;50.90;;;;;;5028503;28;20422;-86
2022/06/01 06:29:10;;;;;;;1.50;1.00;;;24.60;50.90;;;;;;5029892;28;20419;-86
2022/06/01 06:31:37;;;;;;;1.93;1.40;;;24.60;50.90;;;;;;5028378;28;20462;-86
2022/06/01 06:34:03;;;;;;;1.40;0.90;;;24.60;50.80;;;;;;5028413;28;20451;-85
2022/06/01 06:36:29;;;;;;;1.50;1.20;;;24.60;50.90;;;;;;5028211;28;20915;-85
2022/06/01 06:38:56;;;;;;;1.40;1.10;;;24.60;50.80;;;;;;5028164;28;20441;-85
2022/06/01 06:41:22;;;;;;;1.27;0.90;;;24.60;50.80;;;;;;5030285;28;20177;-85
2022/06/01 06:43:47;;;;;;;2.83;1.10;;;24.60;50.80;;;;;;5063897;28;20503;-85
2022/06/01 06:46:17;;;;;;;1.57;0.97;;;24.60;50.80;;;;;;5031769;28;20184;-86
2022/06/01 06:48:45;;;;;;;1.57;1.23;;;24.60;50.80;;;;;;5061754;28;20419;-86
2022/06/01 06:51:12;;;;;;;1.40;1.20;;;24.60;50.80;;;;;;5030769;28;20423;-86
2022/06/01 06:53:39;;;;;;;1.67;1.10;;;24.60;50.80;;;;;;5046913;28;20415;-85
2022/06/01 06:56:05;;;;;;;1.10;1.00;;;24.60;50.80;;;;;;5030031;28;20465;-86
2022/06/01 06:58:31;;;;;;;1.10;0.90;;;24.60;50.80;;;;;;5031449;28;20422;-86
2022/06/01 07:01:00;;;;;;;1.90;1.03;;;24.60;50.80;;;;;;5030956;28;20407;-86
2022/06/01 07:03:29;;;;;;;1.50;1.30;;;24.60;50.80;;;;;;5012150;28;20420;-86
2022/06/01 07:06:12;;;;;;;2.80;1.10;;;24.60;50.80;;;;;;5027934;28;20534;-86
2022/06/01 07:08:45;;;;;;;1.43;1.13;;;24.60;50.80;;;;;;5029423;28;20399;-86
2022/06/01 07:11:12;;;;;;;2.43;1.20;;;24.60;50.80;;;;;;5028203;28;20407;-86
2022/06/01 07:13:38;;;;;;;1.20;1.00;;;24.60;50.80;;;;;;5028919;28;20515;-86
2022/06/01 07:16:15;;;;;;;1.57;1.10;;;24.60;50.80;;;;;;5027445;28;20455;-86
2022/06/01 07:18:45;;;;;;;1.50;1.00;;;24.60;50.80;;;;;;5028243;28;20395;-86
2022/06/01 07:21:13;;;;;;;1.73;1.10;;;24.60;50.80;;;;;;5027657;28;20451;-86
2022/06/01 07:23:39;;;;;;;1.27;1.17;;;24.60;50.80;;;;;;5028159;28;20450;-86
2022/06/01 07:26:20;;;;;;;1.27;1.10;;;24.60;50.80;;;;;;5028815;28;20459;-85
2022/06/01 07:28:46;;;;;;;1.13;1.00;;;24.60;50.80;;;;;;5011263;28;20429;-86
2022/06/01 07:31:17;;;;;;;1.50;1.27;;;24.60;50.80;;;;;;5028861;28;20963;-86
2022/06/01 07:33:43;;;;;;;1.20;1.00;;;24.60;50.80;;;;;;5028791;28;20402;-86
2022/06/01 07:36:11;;;;;;;1.17;1.00;;;24.60;50.80;;;;;;5027734;28;20466;-86
2022/06/01 07:44:13;;;;;;;2.03;1.33;;;24.60;50.80;;;;;;5029238;28;20394;-86
2022/06/01 07:46:39;;;;;;;1.20;1.10;;;24.60;50.90;;;;;;5027363;28;20498;-86
2022/06/01 07:49:08;;;;;;;1.10;0.90;;;24.60;50.90;;;;;;5027650;28;20430;-86
2022/06/01 07:51:38;;;;;;;1.47;1.00;;;24.60;50.90;;;;;;5026895;28;20180;-86
2022/06/01 07:54:05;;;;;;;1.40;1.10;;;24.60;51.00;;;;;;5023924;28;20512;-86
2022/06/01 07:56:31;;;;;;;1.20;0.90;;;24.60;51.00;;;;;;5027082;28;20546;-86
2022/06/01 07:58:57;;;;;;;1.10;1.00;;;24.60;51.00;;;;;;5028234;28;20414;-86
2022/06/01 08:01:25;;;;;;;1.53;1.07;;;24.60;51.00;;;;;;5027490;28;20420;-86
2022/06/01 08:03:56;;;;;;;1.10;1.00;;;24.60;51.00;;;;;;5027123;28;20180;-86
2022/06/01 08:06:23;;;;;;;1.40;1.00;;;24.60;51.00;;;;;;5028844;28;20454;-86
2022/06/01 08:08:49;;;;;;;1.00;0.83;;;24.60;51.00;;;;;;5030937;28;20422;-86
2022/06/01 08:11:16;;;;;;;1.47;1.00;;;24.60;51.00;;;;;;5031995;28;20422;-86
2022/06/01 08:13:42;;;;;;;1.53;0.97;;;24.60;51.00;;;;;;5027053;28;20411;-85
2022/06/01 08:16:08;;;;;;;1.27;1.00;;;24.60;50.90;;;;;;5029150;28;20458;-86
2022/06/01 08:18:34;;;;;;;1.10;1.00;;;24.60;50.90;;;;;;5017409;28;20453;-85
2022/06/01 08:21:00;;;;;;;1.20;0.90;;;24.60;50.90;;;;;;5031885;28;20313;-85
2022/06/01 08:23:31;;;;;;;1.63;1.00;;;24.60;50.90;;;;;;5027252;28;20468;-84
2022/06/01 08:25:57;;;;;;;1.60;1.00;;;24.60;50.90;;;;;;5027372;28;20420;-85
2022/06/01 08:28:24;;;;;;;1.90;1.13;;;24.70;51.00;;;;;;5027032;28;20427;-85
2022/06/01 08:30:50;;;;;;;1.23;1.10;;;24.60;50.90;;;;;;5012207;28;20412;-86
2022/06/01 08:33:17;;;;;;;1.37;1.00;;;24.60;50.90;;;;;;5027572;28;20430;-86
2022/06/01 08:35:47;;;;;;;1.40;1.07;;;24.60;50.90;;;;;;5027238;28;20495;-86
2022/06/01 08:38:13;;;;;;;1.53;1.10;;;24.70;50.90;;;;;;5027409;28;20522;-86
2022/06/01 08:40:45;;;;;;;1.47;1.20;;;24.70;50.90;;;;;;5026940;28;20428;-86
2022/06/01 08:43:15;;;;;;;1.40;0.90;;;24.70;50.90;;;;;;5011974;28;20401;-86
2022/06/01 08:45:48;;;;;;;1.60;1.10;;;24.60;50.90;;;;;;5031027;28;20462;-86
2022/06/01 08:48:28;;;;;;;1.10;0.80;;;24.60;50.90;;;;;;5030909;28;20424;-86
2022/06/01 08:50:54;;;;;;;1.50;1.20;;;24.60;51.00;;;;;;5030969;28;20425;-86
2022/06/01 08:53:21;;;;;;;1.80;1.17;;;24.60;51.00;;;;;;5030924;28;20801;-86
2022/06/01 08:55:57;;;;;;;1.87;1.00;;;24.60;51.00;;;;;;5031223;28;20447;-86
2022/06/01 08:58:37;;;;;;;1.10;0.93;;;24.60;51.00;;;;;;5031287;28;20434;-86
2022/06/01 09:01:41;;;;;;;1.20;1.00;;;24.70;51.10;;;;;;5022848;28;20524;-86
2022/06/01 09:04:38;;;;;;;1.27;1.10;;;24.60;51.10;;;;;;5026702;28;20441;-86
2022/06/01 09:07:21;;;;;;;1.40;1.00;;;24.60;51.10;;;;;;5046324;28;20434;-86
2022/06/01 09:10:11;;;;;;;1.57;0.97;;;24.60;51.10;;;;;;5030039;28;20449;-86
2022/06/01 09:12:37;;;;;;;1.90;1.10;;;24.60;51.10;;;;;;5010240;28;20408;-86
2022/06/01 09:15:17;;;;;;;1.13;0.93;;;24.60;51.10;;;;;;5010635;28;20416;-86
2022/06/01 09:17:43;;;;;;;1.20;1.00;;;24.60;51.10;;;;;;5009379;28;20408;-88
2022/06/01 09:23:01;;;;;;;2.00;1.00;;;24.60;51.00;;;;;;5025979;28;20433;-87
2022/06/01 09:25:32;;;;;;;1.00;0.90;;;24.60;51.60;;;;;;5019677;28;20463;-87
2022/06/01 09:28:02;;;;;;;1.47;1.00;;;24.60;51.00;;;;;;5018467;28;20422;-87
2022/06/01 09:30:42;;;;;;;1.30;1.00;;;24.70;51.10;;;;;;5029825;28;20415;-87
2022/06/01 09:33:32;;;;;;;1.00;0.80;;;24.70;51.10;;;;;;5030174;28;20419;-87
2022/06/01 09:36:05;;;;;;;1.30;1.10;;;24.60;51.00;;;;;;5046189;28;20463;-88
2022/06/01 09:38:53;;;;;;;1.20;0.97;;;24.60;51.00;;;;;;5032668;28;20419;-87
2022/06/01 09:41:31;;;;;;;1.00;0.90;;;24.60;51.10;;;;;;5032063;28;20565;-87
2022/06/01 09:44:05;;;;;;;1.10;0.90;;;24.60;51.00;;;;;;5030412;28;20414;-87
2022/06/01 09:46:50;;;;;;;1.10;1.00;;;24.60;51.00;;;;;;5029794;28;20427;-87
2022/06/01 09:49:29;;;;;;;1.10;1.00;;;24.60;51.60;;;;;;5046488;28;20423;-87
2022/06/01 09:52:11;;;;;;;1.20;0.90;;;24.60;51.10;;;;;;5031424;28;20411;-87
2022/06/01 09:54:43;;;;;;;1.30;1.20;;;24.60;51.10;;;;;;5039160;28;20410;-87
2022/06/01 09:57:32;;;;;;;1.33;1.07;;;24.60;51.10;;;;;;5046503;28;20474;-87
2022/06/01 10:06:07;;;;;;;1.27;0.90;;;24.60;51.10;;;;;;4969299;29;20469;-87
2022/06/01 10:08:35;;;;;;;1.27;1.00;;;24.60;51.10;;;;;;5019144;28;20471;-86
2022/06/01 10:11:03;;;;;;;1.10;0.90;;;24.60;51.10;;;;;;5010267;28;20408;-87
2022/06/01 10:13:33;;;;;;;1.13;1.03;;;24.60;51.10;;;;;;5021068;28;20443;-87
2022/06/01 10:16:09;;;;;;;1.17;0.90;;;24.60;51.10;;;;;;5028524;28;20462;-87
2022/06/01 10:18:36;;;;;;;1.30;0.80;;;24.70;51.10;;;;;;5030563;28;20407;-87
2022/06/01 10:21:12;;;;;;;1.10;1.00;;;24.60;51.00;;;;;;5011965;28;20431;-87
2022/06/01 10:23:50;;;;;;;1.10;0.87;;;24.60;51.10;;;;;;5029411;28;20431;-87
2022/06/01 10:26:32;;;;;;;1.27;0.93;;;24.70;51.10;;;;;;5028874;28;20825;-87
2022/06/01 10:29:05;;;;;;;1.37;1.00;;;24.70;51.10;;;;;;5028614;28;20423;-87
2022/06/01 10:31:41;;;;;;;1.30;0.90;;;24.60;51.10;;;;;;5044594;28;20404;-87
2022/06/01 10:34:17;;;;;;;2.13;0.90;;;24.60;51.10;;;;;;5041343;28;20818;-87
2022/06/01 10:36:55;;;;;;;1.10;0.90;;;24.60;51.10;;;;;;5025872;28;20466;-87
2022/06/01 10:39:46;;;;;;;1.33;1.00;;;24.60;51.10;;;;;;5028860;28;20392;-87
2022/06/01 10:45:21;;;;;;;1.07;0.87;;;24.60;51.10;;;;;;5029444;28;20471;-87
2022/06/01 10:47:57;;;;;;;1.60;0.97;;;24.60;51.10;;;;;;5028761;28;20471;-86
2022/06/01 10:50:54;;;;;;;1.40;1.00;;;24.60;51.10;;;;;;5028061;28;20473;-86
2022/06/01 10:53:38;;;;;;;1.30;1.00;;;24.60;51.10;;;;;;5003061;28;20515;-87
2022/06/01 10:56:06;;;;;;;1.40;1.17;;;24.60;51.10;;;;;;5026120;28;20459;-87
2022/06/01 10:58:33;;;;;;;1.60;1.40;;;24.60;51.10;;;;;;5007658;28;20422;-87
2022/06/01 11:01:13;;;;;;;1.87;1.40;;;24.60;51.10;;;;;;5008470;28;20412;-86
2022/06/01 11:03:58;;;;;;;2.27;1.77;;;24.60;51.10;;;;;;5022761;28;20407;-87
2022/06/01 11:06:32;;;;;;;3.30;2.10;;;24.60;51.50;;;;;;5044338;28;20758;-87
2022/06/01 11:09:22;;;;;;;1.83;1.60;;;24.60;51.10;;;;;;5040418;28;20434;-87
2022/06/01 11:12:22;;;;;;;2.23;1.80;;;24.60;51.10;;;;;;5008628;28;20403;-87
2022/06/01 11:15:06;;;;;;;2.87;2.07;;;24.60;51.10;;;;;;5040614;28;20412;-87
2022/06/01 11:18:07;;;;;;;2.23;1.70;;;24.60;51.10;;;;;;5008044;28;20942;-87
2022/06/01 11:21:00;;;;;;;3.10;2.10;;;24.60;51.10;;;;;;5008001;28;20419;-87
2022/06/01 11:23:32;;;;;;;2.27;1.77;;;24.60;51.20;;;;;;5019882;28;20411;-87
2022/06/01 11:26:33;;;;;;;2.20;1.53;;;24.60;51.10;;;;;;5027825;28;20403;-87
2022/06/01 11:29:07;;;;;;;2.60;2.07;;;24.60;51.20;;;;;;5023957;28;20499;-87
2022/06/01 11:31:35;;;;;;;2.63;2.13;;;24.60;51.20;;;;;;5028481;28;20411;-88
2022/06/01 11:34:22;;;;;;;2.90;2.07;;;24.60;51.20;;;;;;5027885;28;20450;-87
2022/06/01 11:37:12;;;;;;;3.80;2.37;;;24.60;51.20;;;;;;5047594;28;20509;-87
2022/06/01 11:39:54;;;;;;;3.60;1.83;;;24.60;51.30;;;;;;5023020;28;20492;-86
2022/06/01 11:42:29;;;;;;;3.03;1.97;;;24.60;51.30;;;;;;5016283;28;20423;-85
2022/06/01 11:45:00;;;;;;;3.03;1.77;;;24.60;51.30;;;;;;5011283;28;20392;-84
2022/06/01 11:47:34;;;;;;;3.07;2.27;;;24.60;51.40;;;;;;5011027;28;20457;-85
2022/06/01 11:50:21;;;;;;;3.30;2.10;;;24.60;51.30;;;;;;5010473;28;20400;-85
2022/06/01 11:52:56;;;;;;;3.50;1.80;;;24.60;51.30;;;;;;5011638;28;20387;-84
2022/06/01 11:59:01;;;;;;;4.47;2.33;;;24.60;51.20;;;;;;5026453;28;20537;-84
2022/06/01 12:01:44;;;;;;;3.00;1.70;;;24.60;51.30;;;;;;5030255;28;20440;-85
2022/06/01 12:04:22;;;;;;;3.43;2.40;;;24.60;51.30;;;;;;5030199;28;20415;-85
2022/06/01 12:07:22;;;;;;;4.40;2.23;;;24.60;51.30;;;;;;5030165;28;20463;-85
2022/06/01 12:10:14;;;;;;;3.07;1.80;;;24.60;51.80;;;;;;5029990;28;20407;-85
2022/06/01 12:12:39;;;;;;;5.43;1.90;;;24.60;51.30;;;;;;5023117;28;20430;-85
2022/06/01 12:15:37;;;;;;;3.90;2.20;;;24.60;51.30;;;;;;5031309;28;20415;-85
2022/06/01 12:18:07;;;;;;;2.77;2.10;;;24.60;51.30;;;;;;5031114;28;20392;-85
2022/06/01 12:20:33;;;;;;;3.20;1.80;;;24.60;51.30;;;;;;5029981;28;20451;-85
2022/06/01 12:28:52;;;;;;;3.73;2.80;;;24.60;51.40;;;;;;5030966;28;20755;-85
2022/06/01 12:31:22;;;;;;;2.97;1.93;;;24.60;51.40;;;;;;5030368;28;20422;-85
2022/06/01 12:34:17;;;;;;;4.20;2.00;;;24.60;51.40;;;;;;5033208;28;20403;-85
2022/06/01 12:36:54;;;;;;;4.90;2.50;;;24.60;51.40;;;;;;5030752;28;20995;-85
2022/06/01 12:39:27;;;;;;;2.03;1.73;;;24.60;51.40;;;;;;5031624;28;20406;-85
2022/06/01 12:41:59;;;;;;;3.10;1.67;;;24.60;51.40;;;;;;5033004;28;20408;-84
2022/06/01 12:44:26;;;;;;;3.43;1.70;;;24.60;51.40;;;;;;5030882;28;20426;-88
2022/06/01 12:46:59;;;;;;;3.90;1.93;;;24.60;51.40;;;;;;5030144;28;20485;-89
2022/06/01 12:49:48;;;;;;;2.80;2.00;;;24.60;51.40;;;;;;5031231;28;20411;-88
2022/06/01 12:52:31;;;;;;;3.03;1.90;;;24.60;51.40;;;;;;5026751;28;20426;-89
2022/06/01 12:55:02;;;;;;;2.80;2.20;;;24.60;51.40;;;;;;5026503;28;20784;-89
2022/06/01 12:57:34;;;;;;;3.60;2.10;;;24.60;51.40;;;;;;5028368;28;20742;-89
2022/06/01 13:00:17;;;;;;;2.83;1.97;;;24.60;51.40;;;;;;5043898;28;20404;-88
2022/06/01 13:02:43;;;;;;;3.40;2.30;;;24.60;51.40;;;;;;5043452;28;20427;-89
2022/06/01 13:05:18;;;;;;;2.70;1.93;;;24.60;51.40;;;;;;5027632;28;20411;-89
2022/06/01 13:07:48;;;;;;;3.27;1.90;;;24.60;51.40;;;;;;5026405;28;20411;-89
2022/06/01 13:10:22;;;;;;;3.77;2.43;;;24.60;51.40;;;;;;5042838;28;20462;-89
2022/06/01 13:12:49;;;;;;;2.63;1.70;;;24.60;51.30;;;;;;5025772;28;20936;-90
2022/06/01 13:15:26;;;;;;;3.67;2.13;;;24.60;51.30;;;;;;5026266;28;20411;-90
2022/06/01 13:17:58;;;;;;;2.97;2.10;;;24.60;51.40;;;;;;5027130;28;20403;-89
2022/06/01 13:20:48;;;;;;;3.27;1.80;;;24.60;51.30;;;;;;5043299;28;20422;-89
2022/06/01 13:23:30;;;;;;;2.70;1.90;;;24.60;51.40;;;;;;5027815;28;20419;-91
2022/06/01 13:26:06;;;;;;;2.43;2.10;;;24.60;51.40;;;;;;5026605;28;20408;-91
2022/06/01 13:28:54;;;;;;;2.10;1.80;;;24.60;51.40;;;;;;5027618;28;20399;-90
2022/06/01 13:32:05;;;;;;;;;;;;;;;;;;;;;
2022/06/01 13:35:10;;;;;;;;;;;;;;;;;;;;;
2022/06/01 13:37:54;;;;;;;4.30;2.43;;;24.60;51.40;;;;;;5027683;28;20507;-91
2022/06/01 13:40:35;;;;;;;3.13;1.93;;;24.60;51.40;;;;;;5042935;28;20407;-90
2022/06/01 13:43:20;;;;;;;2.87;2.20;;;24.60;51.40;;;;;;5026378;28;20407;-90
2022/06/01 13:46:01;;;;;;;3.73;1.90;;;24.60;51.30;;;;;;5026868;28;20407;-90
2022/06/01 13:48:55;;;;;;;8.93;2.70;;;24.60;51.30;;;;;;5026130;28;20400;-90
2022/06/01 13:51:40;;;;;;;5.30;2.20;;;24.60;51.30;;;;;;5027582;28;20419;-90
2022/06/01 13:54:39;;;;;;;3.37;2.10;;;24.60;51.30;;;;;;5026151;28;20434;-90
2022/06/01 13:57:42;;;;;;;4.27;2.30;;;24.60;51.30;;;;;;5026636;28;20446;-90